sensor_id;sensor_type;location;lat;lon;timestamp;P1;durP1;ratioP1;P2;durP2;ratioP2
59474;SDS011;45288;51.136;16.928;2023-07-13T00:02:22;165.33;;;151.57;;
59474;SDS011;45288;51.136;16.928;2023-07-13T00:04:48;94.20;;;85.40;;
59474;SDS011;45288;51.136;16.928;2023-07-13T00:07:14;78.80;;;71.53;;
59474;SDS011;45288;51.136;16.928;2023-07-13T00:09:40;109.45;;;99.43;;
59474;SDS011;45288;51.136;16.928;2023-07-13T00:12:25;122.88;;;111.80;;
59474;SDS011;45288;51.136;16.928;2023-07-13T00:14:51;154.10;;;140.65;;
59474;SDS011;45288;51.136;16.928;2023-07-13T00:17:17;130.00;;;119.22;;
59474;SDS011;45288;51.136;16.928;2023-07-13T00:19:43;133.20;;;121.30;;
59474;SDS011;45288;51.136;16.928;2023-07-13T00:22:08;142.38;;;130.50;;
59474;SDS011;45288;51.136;16.928;2023-07-13T00:24:35;171.10;;;156.45;;
59474;SDS011;45288;51.136;16.928;2023-07-13T00:27:09;177.27;;;162.65;;
59474;SDS011;45288;51.136;16.928;2023-07-13T00:29:35;159.75;;;146.57;;
59474;SDS011;45288;51.136;16.928;2023-07-13T00:32:06;157.40;;;144.50;;
59474;SDS011;45288;51.136;16.928;2023-07-13T00:34:32;158.07;;;145.52;;
59474;SDS011;45288;51.136;16.928;2023-07-13T00:36:58;158.65;;;145.55;;
59474;SDS011;45288;51.136;16.928;2023-07-13T00:39:24;173.82;;;159.75;;
59474;SDS011;45288;51.136;16.928;2023-07-13T00:41:50;183.60;;;168.07;;
59474;SDS011;45288;51.136;16.928;2023-07-13T00:44:18;172.95;;;159.25;;
59474;SDS011;45288;51.136;16.928;2023-07-13T00:46:50;170.30;;;155.93;;
59474;SDS011;45288;51.136;16.928;2023-07-13T00:49:16;162.65;;;149.82;;
59474;SDS011;45288;51.136;16.928;2023-07-13T00:51:48;178.27;;;163.40;;
59474;SDS011;45288;51.136;16.928;2023-07-13T00:54:20;170.07;;;156.48;;
59474;SDS011;45288;51.136;16.928;2023-07-13T00:56:48;182.17;;;167.03;;
59474;SDS011;45288;51.136;16.928;2023-07-13T00:59:15;217.10;;;199.60;;
59474;SDS011;45288;51.136;16.928;2023-07-13T01:01:42;207.32;;;190.45;;
59474;SDS011;45288;51.136;16.928;2023-07-13T01:04:08;207.17;;;190.33;;
59474;SDS011;45288;51.136;16.928;2023-07-13T01:06:35;206.13;;;189.40;;
59474;SDS011;45288;51.136;16.928;2023-07-13T01:09:00;208.15;;;191.27;;
59474;SDS011;45288;51.136;16.928;2023-07-13T01:11:26;209.52;;;192.80;;
59474;SDS011;45288;51.136;16.928;2023-07-13T01:13:52;186.53;;;171.20;;
59474;SDS011;45288;51.136;16.928;2023-07-13T01:16:30;195.85;;;180.10;;
59474;SDS011;45288;51.136;16.928;2023-07-13T01:18:56;223.97;;;204.90;;
59474;SDS011;45288;51.136;16.928;2023-07-13T01:21:27;230.87;;;211.97;;
59474;SDS011;45288;51.136;16.928;2023-07-13T01:23:53;251.90;;;231.73;;
59474;SDS011;45288;51.136;16.928;2023-07-13T01:26:20;277.60;;;255.53;;
59474;SDS011;45288;51.136;16.928;2023-07-13T01:28:46;321.35;;;295.52;;
59474;SDS011;45288;51.136;16.928;2023-07-13T01:31:12;407.00;;;372.58;;
59474;SDS011;45288;51.136;16.928;2023-07-13T01:33:39;344.23;;;315.95;;
59474;SDS011;45288;51.136;16.928;2023-07-13T01:36:06;331.33;;;304.60;;
59474;SDS011;45288;51.136;16.928;2023-07-13T01:38:32;423.65;;;388.13;;
59474;SDS011;45288;51.136;16.928;2023-07-13T01:40:59;252.38;;;232.02;;
59474;SDS011;45288;51.136;16.928;2023-07-13T01:43:25;243.77;;;224.80;;
59474;SDS011;45288;51.136;16.928;2023-07-13T01:45:51;256.85;;;236.25;;
59474;SDS011;45288;51.136;16.928;2023-07-13T01:48:17;286.45;;;263.75;;
59474;SDS011;45288;51.136;16.928;2023-07-13T01:50:42;298.03;;;274.17;;
59474;SDS011;45288;51.136;16.928;2023-07-13T01:53:08;257.63;;;237.38;;
59474;SDS011;45288;51.136;16.928;2023-07-13T01:55:34;235.90;;;217.03;;
59474;SDS011;45288;51.136;16.928;2023-07-13T01:58:02;229.77;;;211.98;;
59474;SDS011;45288;51.136;16.928;2023-07-13T02:00:28;199.38;;;183.63;;
59474;SDS011;45288;51.136;16.928;2023-07-13T02:02:54;345.10;;;316.83;;
59474;SDS011;45288;51.136;16.928;2023-07-13T02:05:20;438.90;;;402.07;;
59474;SDS011;45288;51.136;16.928;2023-07-13T02:07:47;464.35;;;425.50;;
59474;SDS011;45288;51.136;16.928;2023-07-13T02:10:13;660.30;;;605.33;;
59474;SDS011;45288;51.136;16.928;2023-07-13T02:12:39;559.75;;;512.50;;
59474;SDS011;45288;51.136;16.928;2023-07-13T02:15:05;545.10;;;499.92;;
59474;SDS011;45288;51.136;16.928;2023-07-13T02:17:33;452.38;;;414.77;;
59474;SDS011;45288;51.136;16.928;2023-07-13T02:19:59;552.47;;;506.13;;
59474;SDS011;45288;51.136;16.928;2023-07-13T02:22:25;403.67;;;370.33;;
59474;SDS011;45288;51.136;16.928;2023-07-13T02:24:50;415.77;;;381.63;;
59474;SDS011;45288;51.136;16.928;2023-07-13T02:27:18;406.80;;;373.13;;
59474;SDS011;45288;51.136;16.928;2023-07-13T02:29:43;362.35;;;333.33;;
59474;SDS011;45288;51.136;16.928;2023-07-13T02:32:09;352.47;;;324.53;;
59474;SDS011;45288;51.136;16.928;2023-07-13T02:34:36;340.65;;;313.23;;
59474;SDS011;45288;51.136;16.928;2023-07-13T02:37:03;346.42;;;319.15;;
59474;SDS011;45288;51.136;16.928;2023-07-13T02:39:29;417.70;;;383.77;;
59474;SDS011;45288;51.136;16.928;2023-07-13T02:41:55;381.80;;;351.27;;
59474;SDS011;45288;51.136;16.928;2023-07-13T02:44:21;422.43;;;388.00;;
59474;SDS011;45288;51.136;16.928;2023-07-13T02:46:46;398.15;;;365.90;;
59474;SDS011;45288;51.136;16.928;2023-07-13T02:49:13;380.77;;;350.45;;
59474;SDS011;45288;51.136;16.928;2023-07-13T02:51:38;373.27;;;343.10;;
59474;SDS011;45288;51.136;16.928;2023-07-13T02:54:04;371.63;;;342.13;;
59474;SDS011;45288;51.136;16.928;2023-07-13T02:56:31;349.45;;;321.52;;
59474;SDS011;45288;51.136;16.928;2023-07-13T02:58:57;367.33;;;337.80;;
59474;SDS011;45288;51.136;16.928;2023-07-13T03:01:23;329.15;;;303.13;;
59474;SDS011;45288;51.136;16.928;2023-07-13T03:03:50;331.90;;;304.83;;
59474;SDS011;45288;51.136;16.928;2023-07-13T03:06:17;344.52;;;317.13;;
59474;SDS011;45288;51.136;16.928;2023-07-13T03:08:48;364.60;;;335.38;;
59474;SDS011;45288;51.136;16.928;2023-07-13T03:11:16;353.10;;;325.25;;
59474;SDS011;45288;51.136;16.928;2023-07-13T03:13:43;330.92;;;304.40;;
59474;SDS011;45288;51.136;16.928;2023-07-13T03:16:10;322.10;;;297.00;;
59474;SDS011;45288;51.136;16.928;2023-07-13T03:18:37;331.13;;;304.17;;
59474;SDS011;45288;51.136;16.928;2023-07-13T03:21:05;299.98;;;276.63;;
59474;SDS011;45288;51.136;16.928;2023-07-13T03:23:31;309.58;;;284.88;;
59474;SDS011;45288;51.136;16.928;2023-07-13T03:26:03;316.23;;;291.60;;
59474;SDS011;45288;51.136;16.928;2023-07-13T03:28:30;310.55;;;286.05;;
59474;SDS011;45288;51.136;16.928;2023-07-13T03:31:16;330.77;;;304.90;;
59474;SDS011;45288;51.136;16.928;2023-07-13T03:33:42;336.00;;;309.08;;
59474;SDS011;45288;51.136;16.928;2023-07-13T03:36:12;320.48;;;295.52;;
59474;SDS011;45288;51.136;16.928;2023-07-13T03:38:38;305.15;;;280.92;;
59474;SDS011;45288;51.136;16.928;2023-07-13T03:41:04;243.33;;;224.73;;
59474;SDS011;45288;51.136;16.928;2023-07-13T03:43:31;320.25;;;295.25;;
59474;SDS011;45288;51.136;16.928;2023-07-13T03:45:56;322.73;;;297.13;;
59474;SDS011;45288;51.136;16.928;2023-07-13T03:48:22;372.50;;;343.30;;
59474;SDS011;45288;51.136;16.928;2023-07-13T03:50:49;360.10;;;330.47;;
59474;SDS011;45288;51.136;16.928;2023-07-13T03:53:15;372.55;;;342.35;;
59474;SDS011;45288;51.136;16.928;2023-07-13T03:55:41;359.17;;;329.80;;
59474;SDS011;45288;51.136;16.928;2023-07-13T03:58:22;367.60;;;338.48;;
59474;SDS011;45288;51.136;16.928;2023-07-13T04:00:50;373.75;;;343.73;;
59474;SDS011;45288;51.136;16.928;2023-07-13T04:03:17;373.33;;;343.77;;
59474;SDS011;45288;51.136;16.928;2023-07-13T04:05:43;372.40;;;342.23;;
59474;SDS011;45288;51.136;16.928;2023-07-13T04:08:12;373.83;;;344.10;;
59474;SDS011;45288;51.136;16.928;2023-07-13T04:10:38;361.73;;;331.90;;
59474;SDS011;45288;51.136;16.928;2023-07-13T04:13:04;370.33;;;340.50;;
59474;SDS011;45288;51.136;16.928;2023-07-13T04:15:30;381.13;;;350.73;;
59474;SDS011;45288;51.136;16.928;2023-07-13T04:17:58;464.20;;;425.52;;
59474;SDS011;45288;51.136;16.928;2023-07-13T04:20:24;488.20;;;447.77;;
59474;SDS011;45288;51.136;16.928;2023-07-13T04:22:50;574.97;;;527.17;;
59474;SDS011;45288;51.136;16.928;2023-07-13T04:25:16;989.63;;;913.33;;
59474;SDS011;45288;51.136;16.928;2023-07-13T04:27:42;1241.20;;;999.90;;
59474;SDS011;45288;51.136;16.928;2023-07-13T04:30:08;1244.95;;;999.90;;
59474;SDS011;45288;51.136;16.928;2023-07-13T04:32:34;1236.97;;;999.90;;
59474;SDS011;45288;51.136;16.928;2023-07-13T04:34:59;1203.43;;;999.90;;
59474;SDS011;45288;51.136;16.928;2023-07-13T04:37:26;567.60;;;521.93;;
59474;SDS011;45288;51.136;16.928;2023-07-13T04:39:52;706.97;;;650.53;;
59474;SDS011;45288;51.136;16.928;2023-07-13T04:42:18;1206.43;;;999.90;;
59474;SDS011;45288;51.136;16.928;2023-07-13T04:44:47;1229.28;;;999.90;;
59474;SDS011;45288;51.136;16.928;2023-07-13T04:47:14;1213.13;;;999.90;;
59474;SDS011;45288;51.136;16.928;2023-07-13T04:49:40;1214.28;;;999.90;;
59474;SDS011;45288;51.136;16.928;2023-07-13T04:52:06;1204.10;;;999.90;;
59474;SDS011;45288;51.136;16.928;2023-07-13T04:54:33;1202.43;;;999.90;;
59474;SDS011;45288;51.136;16.928;2023-07-13T04:56:59;1170.03;;;999.90;;
59474;SDS011;45288;51.136;16.928;2023-07-13T04:59:25;1207.73;;;999.90;;
59474;SDS011;45288;51.136;16.928;2023-07-13T05:01:51;1184.43;;;999.90;;
59474;SDS011;45288;51.136;16.928;2023-07-13T05:04:16;1194.57;;;999.90;;
59474;SDS011;45288;51.136;16.928;2023-07-13T05:06:42;1080.40;;;993.45;;
59474;SDS011;45288;51.136;16.928;2023-07-13T05:09:08;696.88;;;643.03;;
59474;SDS011;45288;51.136;16.928;2023-07-13T05:11:35;1027.57;;;951.42;;
59474;SDS011;45288;51.136;16.928;2023-07-13T05:14:00;1060.23;;;983.03;;
59474;SDS011;45288;51.136;16.928;2023-07-13T05:16:27;1186.00;;;999.90;;
59474;SDS011;45288;51.136;16.928;2023-07-13T05:18:53;1180.55;;;999.90;;
59474;SDS011;45288;51.136;16.928;2023-07-13T05:21:18;1188.30;;;999.90;;
59474;SDS011;45288;51.136;16.928;2023-07-13T05:23:44;1170.23;;;999.90;;
59474;SDS011;45288;51.136;16.928;2023-07-13T05:26:10;1152.10;;;999.90;;
59474;SDS011;45288;51.136;16.928;2023-07-13T05:28:36;1188.00;;;999.90;;
59474;SDS011;45288;51.136;16.928;2023-07-13T05:31:02;1191.43;;;999.90;;
59474;SDS011;45288;51.136;16.928;2023-07-13T05:33:28;1127.73;;;999.90;;
59474;SDS011;45288;51.136;16.928;2023-07-13T05:35:53;1200.72;;;999.90;;
59474;SDS011;45288;51.136;16.928;2023-07-13T05:38:20;1186.90;;;999.90;;
59474;SDS011;45288;51.136;16.928;2023-07-13T05:40:46;1200.20;;;999.90;;
59474;SDS011;45288;51.136;16.928;2023-07-13T05:43:12;1193.82;;;999.90;;
59474;SDS011;45288;51.136;16.928;2023-07-13T05:45:38;1063.77;;;986.23;;
59474;SDS011;45288;51.136;16.928;2023-07-13T05:48:04;1121.90;;;999.90;;
59474;SDS011;45288;51.136;16.928;2023-07-13T05:50:30;914.92;;;845.97;;
59474;SDS011;45288;51.136;16.928;2023-07-13T05:52:56;570.10;;;524.85;;
59474;SDS011;45288;51.136;16.928;2023-07-13T05:55:21;513.30;;;472.23;;
59474;SDS011;45288;51.136;16.928;2023-07-13T05:57:47;731.53;;;673.95;;
59474;SDS011;45288;51.136;16.928;2023-07-13T06:00:13;757.73;;;700.07;;
59474;SDS011;45288;51.136;16.928;2023-07-13T06:02:39;471.67;;;434.58;;
59474;SDS011;45288;51.136;16.928;2023-07-13T06:05:05;119.53;;;110.03;;
59474;SDS011;45288;51.136;16.928;2023-07-13T06:07:31;112.73;;;103.50;;
59474;SDS011;45288;51.136;16.928;2023-07-13T06:09:56;118.00;;;109.03;;
59474;SDS011;45288;51.136;16.928;2023-07-13T06:12:22;168.37;;;155.43;;
59474;SDS011;45288;51.136;16.928;2023-07-13T06:14:48;194.00;;;178.40;;
59474;SDS011;45288;51.136;16.928;2023-07-13T06:17:14;247.87;;;229.83;;
59474;SDS011;45288;51.136;16.928;2023-07-13T06:19:40;269.20;;;248.63;;
59474;SDS011;45288;51.136;16.928;2023-07-13T06:22:05;304.40;;;280.97;;
59474;SDS011;45288;51.136;16.928;2023-07-13T06:24:31;438.23;;;403.60;;
59474;SDS011;45288;51.136;16.928;2023-07-13T06:26:57;259.83;;;238.68;;
59474;SDS011;45288;51.136;16.928;2023-07-13T06:29:23;221.30;;;204.40;;
59474;SDS011;45288;51.136;16.928;2023-07-13T06:31:49;255.63;;;236.13;;
59474;SDS011;45288;51.136;16.928;2023-07-13T06:34:15;292.73;;;270.27;;
59474;SDS011;45288;51.136;16.928;2023-07-13T06:36:40;325.90;;;300.87;;
59474;SDS011;45288;51.136;16.928;2023-07-13T06:39:07;399.75;;;368.75;;
59474;SDS011;45288;51.136;16.928;2023-07-13T06:41:33;602.03;;;553.70;;
59474;SDS011;45288;51.136;16.928;2023-07-13T06:43:59;829.22;;;765.15;;
59474;SDS011;45288;51.136;16.928;2023-07-13T06:46:25;613.63;;;565.37;;
59474;SDS011;45288;51.136;16.928;2023-07-13T06:48:51;30.23;;;9.02;;
59474;SDS011;45288;51.136;16.928;2023-07-13T06:51:16;27.70;;;8.40;;
59474;SDS011;45288;51.136;16.928;2023-07-13T06:53:42;31.42;;;8.93;;
59474;SDS011;45288;51.136;16.928;2023-07-13T06:56:09;692.33;;;637.30;;
59474;SDS011;45288;51.136;16.928;2023-07-13T06:58:36;417.50;;;384.55;;
59474;SDS011;45288;51.136;16.928;2023-07-13T07:01:02;470.92;;;433.52;;
59474;SDS011;45288;51.136;16.928;2023-07-13T07:03:28;436.77;;;402.63;;
59474;SDS011;45288;51.136;16.928;2023-07-13T07:05:54;386.42;;;356.17;;
59474;SDS011;45288;51.136;16.928;2023-07-13T07:08:19;358.63;;;330.73;;
59474;SDS011;45288;51.136;16.928;2023-07-13T07:10:46;410.60;;;378.30;;
59474;SDS011;45288;51.136;16.928;2023-07-13T07:13:12;615.38;;;565.72;;
59474;SDS011;45288;51.136;16.928;2023-07-13T07:15:37;699.63;;;643.33;;
59474;SDS011;45288;51.136;16.928;2023-07-13T07:18:03;736.30;;;677.80;;
59474;SDS011;45288;51.136;16.928;2023-07-13T07:20:29;343.33;;;316.58;;
59474;SDS011;45288;51.136;16.928;2023-07-13T07:22:56;352.53;;;325.10;;
59474;SDS011;45288;51.136;16.928;2023-07-13T07:25:22;34.88;;;15.60;;
59474;SDS011;45288;51.136;16.928;2023-07-13T07:27:48;32.30;;;9.70;;
59474;SDS011;45288;51.136;16.928;2023-07-13T07:30:14;29.25;;;9.73;;
59474;SDS011;45288;51.136;16.928;2023-07-13T07:32:40;282.40;;;260.20;;
59474;SDS011;45288;51.136;16.928;2023-07-13T07:35:07;292.63;;;270.80;;
59474;SDS011;45288;51.136;16.928;2023-07-13T07:37:32;317.53;;;292.30;;
59474;SDS011;45288;51.136;16.928;2023-07-13T07:39:58;368.58;;;339.75;;
59474;SDS011;45288;51.136;16.928;2023-07-13T07:42:24;445.20;;;409.83;;
59474;SDS011;45288;51.136;16.928;2023-07-13T07:44:51;438.35;;;403.10;;
59474;SDS011;45288;51.136;16.928;2023-07-13T07:47:16;426.00;;;391.83;;
59474;SDS011;45288;51.136;16.928;2023-07-13T07:49:42;414.80;;;382.02;;
59474;SDS011;45288;51.136;16.928;2023-07-13T07:52:08;369.60;;;341.20;;
59474;SDS011;45288;51.136;16.928;2023-07-13T07:54:34;287.30;;;265.17;;
59474;SDS011;45288;51.136;16.928;2023-07-13T07:56:59;285.90;;;263.67;;
59474;SDS011;45288;51.136;16.928;2023-07-13T07:59:26;302.08;;;279.65;;
59474;SDS011;45288;51.136;16.928;2023-07-13T08:01:52;364.10;;;335.13;;
59474;SDS011;45288;51.136;16.928;2023-07-13T08:04:18;343.38;;;316.80;;
59474;SDS011;45288;51.136;16.928;2023-07-13T08:06:44;346.38;;;319.02;;
59474;SDS011;45288;51.136;16.928;2023-07-13T08:09:09;317.63;;;293.37;;
59474;SDS011;45288;51.136;16.928;2023-07-13T08:11:35;298.50;;;275.02;;
59474;SDS011;45288;51.136;16.928;2023-07-13T08:14:01;325.03;;;299.83;;
59474;SDS011;45288;51.136;16.928;2023-07-13T08:16:27;328.38;;;302.67;;
59474;SDS011;45288;51.136;16.928;2023-07-13T08:18:53;38.90;;;10.43;;
59474;SDS011;45288;51.136;16.928;2023-07-13T08:21:19;34.33;;;24.50;;
59474;SDS011;45288;51.136;16.928;2023-07-13T08:23:45;329.15;;;303.35;;
59474;SDS011;45288;51.136;16.928;2023-07-13T08:26:11;335.50;;;309.40;;
59474;SDS011;45288;51.136;16.928;2023-07-13T08:28:37;315.73;;;290.27;;
59474;SDS011;45288;51.136;16.928;2023-07-13T08:31:04;258.70;;;238.68;;
59474;SDS011;45288;51.136;16.928;2023-07-13T08:33:30;259.23;;;239.60;;
59474;SDS011;45288;51.136;16.928;2023-07-13T08:35:55;272.33;;;250.75;;
59474;SDS011;45288;51.136;16.928;2023-07-13T08:38:21;281.27;;;259.98;;
59474;SDS011;45288;51.136;16.928;2023-07-13T08:40:53;292.23;;;269.35;;
59474;SDS011;45288;51.136;16.928;2023-07-13T08:43:23;277.30;;;256.10;;
59474;SDS011;45288;51.136;16.928;2023-07-13T08:45:51;258.10;;;236.95;;
59474;SDS011;45288;51.136;16.928;2023-07-13T08:48:20;23.42;;;7.50;;
59474;SDS011;45288;51.136;16.928;2023-07-13T08:53:23;29.38;;;8.50;;
59474;SDS011;45288;51.136;16.928;2023-07-13T08:55:51;26.23;;;8.10;;
59474;SDS011;45288;51.136;16.928;2023-07-13T08:58:19;24.73;;;7.55;;
59474;SDS011;45288;51.136;16.928;2023-07-13T09:03:40;26.85;;;7.85;;
59474;SDS011;45288;51.136;16.928;2023-07-13T09:06:08;24.90;;;7.55;;
59474;SDS011;45288;51.136;16.928;2023-07-13T09:16:19;28.40;;;7.82;;
59474;SDS011;45288;51.136;16.928;2023-07-13T09:18:52;28.80;;;7.93;;
59474;SDS011;45288;51.136;16.928;2023-07-13T09:21:23;22.95;;;6.75;;
59474;SDS011;45288;51.136;16.928;2023-07-13T09:23:54;24.98;;;7.57;;
59474;SDS011;45288;51.136;16.928;2023-07-13T09:26:23;25.33;;;7.07;;
59474;SDS011;45288;51.136;16.928;2023-07-13T09:28:57;23.03;;;6.67;;
59474;SDS011;45288;51.136;16.928;2023-07-13T09:33:56;31.70;;;15.73;;
59474;SDS011;45288;51.136;16.928;2023-07-13T09:36:24;397.88;;;364.77;;
59474;SDS011;45288;51.136;16.928;2023-07-13T09:38:59;394.30;;;361.63;;
59474;SDS011;45288;51.136;16.928;2023-07-13T09:44:15;19.95;;;5.32;;
59474;SDS011;45288;51.136;16.928;2023-07-13T09:46:52;26.98;;;6.95;;
59474;SDS011;45288;51.136;16.928;2023-07-13T09:49:18;22.00;;;5.88;;
59474;SDS011;45288;51.136;16.928;2023-07-13T09:51:44;20.47;;;5.33;;
59474;SDS011;45288;51.136;16.928;2023-07-13T09:54:17;24.50;;;6.20;;
59474;SDS011;45288;51.136;16.928;2023-07-13T09:56:43;24.88;;;6.30;;
59474;SDS011;45288;51.136;16.928;2023-07-13T09:59:18;17.40;;;4.75;;
59474;SDS011;45288;51.136;16.928;2023-07-13T10:01:44;26.55;;;6.38;;
59474;SDS011;45288;51.136;16.928;2023-07-13T10:04:13;20.90;;;5.43;;
59474;SDS011;45288;51.136;16.928;2023-07-13T10:06:39;21.27;;;5.50;;
59474;SDS011;45288;51.136;16.928;2023-07-13T10:09:09;21.07;;;5.90;;
59474;SDS011;45288;51.136;16.928;2023-07-13T10:11:36;21.52;;;5.65;;
59474;SDS011;45288;51.136;16.928;2023-07-13T10:14:10;20.23;;;5.40;;
59474;SDS011;45288;51.136;16.928;2023-07-13T10:16:37;21.45;;;5.72;;
59474;SDS011;45288;51.136;16.928;2023-07-13T10:19:05;20.20;;;5.43;;
59474;SDS011;45288;51.136;16.928;2023-07-13T10:21:34;21.42;;;5.78;;
59474;SDS011;45288;51.136;16.928;2023-07-13T10:24:17;18.73;;;5.30;;
59474;SDS011;45288;51.136;16.928;2023-07-13T10:29:22;21.33;;;5.95;;
59474;SDS011;45288;51.136;16.928;2023-07-13T10:31:49;21.50;;;5.70;;
59474;SDS011;45288;51.136;16.928;2023-07-13T10:34:15;20.47;;;5.50;;
59474;SDS011;45288;51.136;16.928;2023-07-13T10:36:45;22.08;;;5.53;;
59474;SDS011;45288;51.136;16.928;2023-07-13T10:39:21;26.10;;;6.57;;
59474;SDS011;45288;51.136;16.928;2023-07-13T10:42:11;22.63;;;5.90;;
59474;SDS011;45288;51.136;16.928;2023-07-13T10:44:35;22.60;;;5.82;;
59474;SDS011;45288;51.136;16.928;2023-07-13T10:47:06;21.50;;;5.97;;
59474;SDS011;45288;51.136;16.928;2023-07-13T10:49:32;20.55;;;5.68;;
59474;SDS011;45288;51.136;16.928;2023-07-13T10:52:01;24.25;;;6.15;;
59474;SDS011;45288;51.136;16.928;2023-07-13T10:54:30;19.35;;;5.65;;
59474;SDS011;45288;51.136;16.928;2023-07-13T10:59:38;23.70;;;6.25;;
59474;SDS011;45288;51.136;16.928;2023-07-13T11:02:11;21.85;;;6.10;;
59474;SDS011;45288;51.136;16.928;2023-07-13T11:07:11;21.07;;;5.63;;
59474;SDS011;45288;51.136;16.928;2023-07-13T11:09:43;23.17;;;6.20;;
59474;SDS011;45288;51.136;16.928;2023-07-13T11:22:46;20.80;;;5.53;;
59474;SDS011;45288;51.136;16.928;2023-07-13T11:25:31;20.55;;;5.65;;
59474;SDS011;45288;51.136;16.928;2023-07-13T11:35:31;22.02;;;5.75;;
59474;SDS011;45288;51.136;16.928;2023-07-13T11:37:58;546.65;;;498.90;;
59474;SDS011;45288;51.136;16.928;2023-07-13T11:40:24;474.93;;;434.03;;
59474;SDS011;45288;51.136;16.928;2023-07-13T11:42:58;445.40;;;406.67;;
59474;SDS011;45288;51.136;16.928;2023-07-13T11:45:24;343.80;;;315.30;;
59474;SDS011;45288;51.136;16.928;2023-07-13T11:47:50;257.33;;;236.50;;
59474;SDS011;45288;51.136;16.928;2023-07-13T11:50:19;316.42;;;290.20;;
59474;SDS011;45288;51.136;16.928;2023-07-13T11:52:45;330.63;;;303.27;;
59474;SDS011;45288;51.136;16.928;2023-07-13T11:55:15;434.15;;;396.85;;
59474;SDS011;45288;51.136;16.928;2023-07-13T11:57:42;544.78;;;497.70;;
59474;SDS011;45288;51.136;16.928;2023-07-13T12:00:15;579.90;;;529.72;;
59474;SDS011;45288;51.136;16.928;2023-07-13T12:02:46;501.70;;;458.95;;
59474;SDS011;45288;51.136;16.928;2023-07-13T12:05:13;536.15;;;490.05;;
59474;SDS011;45288;51.136;16.928;2023-07-13T12:07:40;531.67;;;485.95;;
59474;SDS011;45288;51.136;16.928;2023-07-13T12:12:35;460.73;;;421.50;;
59474;SDS011;45288;51.136;16.928;2023-07-13T12:15:05;674.78;;;617.17;;
59474;SDS011;45288;51.136;16.928;2023-07-13T12:17:30;719.80;;;659.03;;
59474;SDS011;45288;51.136;16.928;2023-07-13T12:19:56;831.40;;;762.13;;
59474;SDS011;45288;51.136;16.928;2023-07-13T12:22:23;672.78;;;615.60;;
59474;SDS011;45288;51.136;16.928;2023-07-13T12:24:49;803.38;;;736.65;;
59474;SDS011;45288;51.136;16.928;2023-07-13T12:27:20;805.65;;;738.28;;
59474;SDS011;45288;51.136;16.928;2023-07-13T12:29:49;1146.30;;;999.90;;
59474;SDS011;45288;51.136;16.928;2023-07-13T12:32:17;922.67;;;848.53;;
59474;SDS011;45288;51.136;16.928;2023-07-13T12:35:02;743.45;;;681.33;;
59474;SDS011;45288;51.136;16.928;2023-07-13T12:37:33;590.50;;;540.00;;
59474;SDS011;45288;51.136;16.928;2023-07-13T12:39:59;588.97;;;537.20;;
59474;SDS011;45288;51.136;16.928;2023-07-13T12:42:26;553.58;;;505.55;;
59474;SDS011;45288;51.136;16.928;2023-07-13T12:44:57;672.58;;;614.20;;
59474;SDS011;45288;51.136;16.928;2023-07-13T12:47:24;611.38;;;559.20;;
59474;SDS011;45288;51.136;16.928;2023-07-13T12:49:57;548.85;;;501.17;;
59474;SDS011;45288;51.136;16.928;2023-07-13T12:52:28;548.30;;;500.58;;
59474;SDS011;45288;51.136;16.928;2023-07-13T12:55:13;656.75;;;601.95;;
59474;SDS011;45288;51.136;16.928;2023-07-13T12:57:43;709.78;;;649.83;;
59474;SDS011;45288;51.136;16.928;2023-07-13T13:00:20;672.78;;;614.65;;
59474;SDS011;45288;51.136;16.928;2023-07-13T13:02:48;767.80;;;702.90;;
59474;SDS011;45288;51.136;16.928;2023-07-13T13:05:15;737.45;;;675.25;;
59474;SDS011;45288;51.136;16.928;2023-07-13T13:07:41;677.97;;;619.90;;
59474;SDS011;45288;51.136;16.928;2023-07-13T13:10:14;406.15;;;372.08;;
59474;SDS011;45288;51.136;16.928;2023-07-13T13:12:40;463.45;;;422.95;;
59474;SDS011;45288;51.136;16.928;2023-07-13T13:15:08;638.00;;;581.15;;
59474;SDS011;45288;51.136;16.928;2023-07-13T13:17:34;502.25;;;458.25;;
59474;SDS011;45288;51.136;16.928;2023-07-13T13:19:59;467.42;;;426.52;;
59474;SDS011;45288;51.136;16.928;2023-07-13T13:22:27;683.60;;;624.58;;
59474;SDS011;45288;51.136;16.928;2023-07-13T13:24:54;680.78;;;621.40;;
59474;SDS011;45288;51.136;16.928;2023-07-13T13:27:20;594.63;;;542.45;;
59474;SDS011;45288;51.136;16.928;2023-07-13T13:29:47;1063.95;;;976.28;;
59474;SDS011;45288;51.136;16.928;2023-07-13T13:32:16;1177.07;;;999.90;;
59474;SDS011;45288;51.136;16.928;2023-07-13T13:34:41;1334.50;;;999.90;;
59474;SDS011;45288;51.136;16.928;2023-07-13T13:37:20;1314.60;;;999.90;;
59474;SDS011;45288;51.136;16.928;2023-07-13T13:39:47;884.70;;;807.47;;
59474;SDS011;45288;51.136;16.928;2023-07-13T13:42:12;527.95;;;481.02;;
59474;SDS011;45288;51.136;16.928;2023-07-13T13:44:38;584.27;;;532.30;;
59474;SDS011;45288;51.136;16.928;2023-07-13T13:47:04;936.90;;;856.63;;
59474;SDS011;45288;51.136;16.928;2023-07-13T13:49:29;735.00;;;670.63;;
59474;SDS011;45288;51.136;16.928;2023-07-13T13:51:55;690.58;;;629.10;;
59474;SDS011;45288;51.136;16.928;2023-07-13T13:54:22;655.72;;;596.75;;
59474;SDS011;45288;51.136;16.928;2023-07-13T13:56:48;700.03;;;638.03;;
59474;SDS011;45288;51.136;16.928;2023-07-13T13:59:14;835.38;;;762.72;;
59474;SDS011;45288;51.136;16.928;2023-07-13T14:01:40;1217.83;;;999.90;;
59474;SDS011;45288;51.136;16.928;2023-07-13T14:04:09;1227.63;;;999.90;;
59474;SDS011;45288;51.136;16.928;2023-07-13T14:06:38;1038.63;;;951.80;;
59474;SDS011;45288;51.136;16.928;2023-07-13T14:09:04;1238.30;;;999.90;;
59474;SDS011;45288;51.136;16.928;2023-07-13T14:11:30;1315.63;;;999.90;;
59474;SDS011;45288;51.136;16.928;2023-07-13T14:13:58;1005.72;;;921.42;;
59474;SDS011;45288;51.136;16.928;2023-07-13T14:16:26;1060.37;;;970.50;;
59474;SDS011;45288;51.136;16.928;2023-07-13T14:18:53;1336.50;;;999.90;;
59474;SDS011;45288;51.136;16.928;2023-07-13T14:21:20;1179.38;;;999.90;;
59474;SDS011;45288;51.136;16.928;2023-07-13T14:23:47;1306.85;;;999.90;;
59474;SDS011;45288;51.136;16.928;2023-07-13T14:26:14;1295.57;;;999.90;;
59474;SDS011;45288;51.136;16.928;2023-07-13T14:28:43;1183.00;;;999.90;;
59474;SDS011;45288;51.136;16.928;2023-07-13T14:31:10;1053.32;;;965.03;;
59474;SDS011;45288;51.136;16.928;2023-07-13T14:33:45;869.92;;;793.80;;
59474;SDS011;45288;51.136;16.928;2023-07-13T14:36:33;414.42;;;377.65;;
59474;SDS011;45288;51.136;16.928;2023-07-13T14:39:00;439.42;;;399.33;;